createdAt,value
2023-04-23T00:00:15.968Z,19.83
2023-04-23T00:00:38.732Z,19.81
2023-04-23T00:01:02.512Z,19.82
2023-04-23T00:01:28.032Z,19.83
2023-04-23T00:01:52.464Z,19.76
2023-04-23T00:02:16.695Z,19.86
2023-04-23T00:02:39.386Z,19.86
2023-04-23T00:03:09.858Z,19.87
2023-04-23T00:03:33.881Z,19.89
2023-04-23T00:03:58.283Z,19.89
2023-04-23T00:04:22.942Z,19.91
2023-04-23T00:04:51.743Z,19.91
2023-04-23T00:05:14.752Z,19.94
2023-04-23T00:05:37.723Z,19.93
2023-04-23T00:05:59.903Z,19.90
2023-04-23T00:06:23.436Z,19.82
2023-04-23T00:06:46.871Z,19.89
2023-04-23T00:07:09.016Z,19.87
2023-04-23T00:07:32.362Z,19.81
2023-04-23T00:07:54.439Z,19.82
2023-04-23T00:08:19.135Z,19.82
2023-04-23T00:08:42.021Z,19.77
2023-04-23T00:09:06.968Z,19.77
2023-04-23T00:09:32.448Z,19.74
2023-04-23T00:09:58.516Z,19.76
2023-04-23T00:10:20.706Z,19.73
2023-04-23T00:10:42.776Z,19.77
2023-04-23T00:11:06.383Z,19.83
2023-04-23T00:11:28.548Z,19.83
2023-04-23T00:11:50.746Z,19.81
2023-04-23T00:12:13.241Z,19.84
2023-04-23T00:12:36.667Z,19.85
2023-04-23T00:12:59.361Z,19.86
2023-04-23T00:13:21.514Z,19.79
2023-04-23T00:13:44.283Z,19.87
2023-04-23T00:14:07.350Z,19.82
2023-04-23T00:14:29.484Z,19.81
2023-04-23T00:14:51.654Z,19.79
2023-04-23T00:15:14.385Z,19.67
2023-04-23T00:15:38.021Z,19.80
2023-04-23T00:16:00.404Z,19.67
2023-04-23T00:16:22.759Z,19.86
2023-04-23T00:16:45.083Z,19.84
2023-04-23T00:17:07.786Z,19.89
2023-04-23T00:17:29.597Z,19.90
2023-04-23T00:17:51.517Z,19.86
2023-04-23T00:18:13.604Z,19.84
2023-04-23T00:18:36.211Z,19.81
2023-04-23T00:18:57.844Z,19.80
2023-04-23T00:19:20.857Z,19.78
2023-04-23T00:19:42.590Z,19.69
2023-04-23T00:20:06.436Z,19.76
2023-04-23T00:20:29.058Z,19.81
2023-04-23T00:20:50.975Z,19.79
2023-04-23T00:21:12.755Z,19.82
2023-04-23T00:21:34.385Z,19.82
2023-04-23T00:21:57.024Z,19.83
2023-04-23T00:22:20.184Z,19.79
2023-04-23T00:22:42.166Z,19.83
2023-04-23T00:23:03.849Z,19.82
2023-04-23T00:23:25.544Z,19.80
2023-04-23T00:23:48.481Z,19.80
2023-04-23T00:24:10.301Z,19.82
2023-04-23T00:24:36.160Z,19.83
2023-04-23T00:24:57.906Z,19.82
2023-04-23T00:25:20.691Z,19.86
2023-04-23T00:25:42.339Z,19.86
2023-04-23T00:26:04.090Z,19.83
2023-04-23T00:26:25.799Z,19.81
2023-04-23T00:26:48.384Z,19.83
2023-04-23T00:27:10.028Z,19.83
2023-04-23T00:27:31.685Z,19.79
2023-04-23T00:27:53.333Z,19.79
2023-04-23T00:28:14.975Z,19.78
2023-04-23T00:28:37.788Z,19.80
2023-04-23T00:28:59.388Z,19.77
2023-04-23T00:29:21.035Z,19.73
2023-04-23T00:29:43.566Z,19.73
2023-04-23T00:30:06.898Z,19.78
2023-04-23T00:30:29.853Z,19.70
2023-04-23T00:30:51.457Z,19.77
2023-04-23T00:31:13.061Z,19.80
2023-04-23T00:32:17.317Z,19.77
2023-04-23T00:32:39.057Z,19.78
2023-04-23T00:33:00.787Z,19.78
2023-04-23T00:33:23.136Z,19.78
2023-04-23T00:33:44.836Z,19.77
2023-04-23T00:34:07.733Z,19.78
2023-04-23T00:34:29.635Z,19.68
2023-04-23T00:34:51.745Z,19.79
2023-04-23T00:35:13.362Z,19.79
2023-04-23T00:35:35.234Z,19.78
2023-04-23T00:35:57.887Z,19.79
2023-04-23T00:36:19.550Z,19.73
2023-04-23T00:36:42.655Z,19.73
2023-04-23T00:37:06.821Z,19.75
2023-04-23T00:37:29.406Z,19.76
2023-04-23T00:37:51.105Z,19.76
2023-04-23T00:38:12.730Z,19.77
2023-04-23T00:38:34.328Z,19.80
2023-04-23T00:38:55.999Z,19.75
2023-04-23T00:39:17.794Z,19.73
2023-04-23T00:39:43.002Z,19.69
2023-04-23T00:40:05.823Z,19.78
2023-04-23T00:40:27.495Z,19.76
2023-04-23T00:40:49.289Z,19.72
2023-04-23T00:41:12.542Z,19.65
2023-04-23T00:41:34.390Z,19.64
2023-04-23T00:41:56.050Z,19.67
2023-04-23T00:42:17.714Z,19.70
2023-04-23T00:42:39.963Z,19.69
2023-04-23T00:43:03.271Z,19.71
2023-04-23T00:43:24.957Z,19.68
2023-04-23T00:43:47.459Z,19.70
2023-04-23T00:44:09.123Z,19.68
2023-04-23T00:44:31.765Z,19.70
2023-04-23T00:44:53.715Z,19.62
2023-04-23T00:45:16.086Z,19.66
2023-04-23T00:45:38.143Z,19.66
2023-04-23T00:46:01.114Z,19.63
2023-04-23T00:46:23.497Z,19.62
2023-04-23T00:46:47.024Z,19.59
2023-04-23T00:47:08.800Z,19.65
2023-04-23T00:47:31.250Z,19.64
2023-04-23T00:47:54.813Z,19.56
2023-04-23T00:48:16.752Z,19.65
2023-04-23T00:48:39.742Z,19.65
2023-04-23T00:49:01.958Z,19.62
2023-04-23T00:49:25.182Z,19.61
2023-04-23T00:49:48.521Z,19.62
2023-04-23T00:50:10.313Z,19.55
2023-04-23T00:50:32.221Z,19.53
2023-04-23T00:50:59.604Z,19.53
2023-04-23T00:51:22.555Z,19.54
2023-04-23T00:51:44.126Z,19.58
2023-04-23T00:52:05.970Z,19.61
2023-04-23T00:52:29.073Z,19.55
2023-04-23T00:52:52.802Z,19.60
2023-04-23T00:53:14.403Z,19.58
2023-04-23T00:53:36.136Z,19.59
2023-04-23T00:53:58.236Z,19.59
2023-04-23T00:54:22.175Z,19.61
2023-04-23T00:54:45.859Z,19.62
2023-04-23T00:55:08.940Z,19.56
2023-04-23T00:55:30.710Z,19.63
2023-04-23T00:55:53.035Z,19.65
2023-04-23T00:56:16.542Z,19.66
2023-04-23T00:56:38.567Z,19.65
2023-04-23T00:57:01.051Z,19.64
2023-04-23T00:57:23.037Z,19.63
2023-04-23T00:57:45.951Z,19.60
2023-04-23T00:58:07.736Z,19.63
2023-04-23T00:58:30.063Z,19.62
2023-04-23T00:58:52.481Z,19.61
2023-04-23T00:59:14.505Z,19.60
2023-04-23T00:59:37.786Z,19.58
2023-04-23T01:00:00.264Z,19.55
2023-04-23T01:00:22.524Z,19.53
2023-04-23T01:00:47.295Z,19.52
2023-04-23T01:01:10.525Z,19.53
2023-04-23T01:01:33.246Z,19.53
2023-04-23T01:01:56.220Z,19.41
2023-04-23T01:02:18.266Z,19.49
2023-04-23T01:02:42.482Z,19.49
2023-04-23T01:03:06.295Z,19.47
2023-04-23T01:03:29.830Z,19.36
2023-04-23T01:03:53.734Z,19.45
2023-04-23T01:04:17.650Z,19.42
2023-04-23T01:04:41.462Z,19.47
2023-04-23T01:05:06.614Z,19.46
2023-04-23T01:05:28.347Z,19.45
2023-04-23T01:05:50.671Z,19.42
2023-04-23T01:06:12.469Z,19.42
2023-04-23T01:06:35.193Z,19.38
2023-04-23T01:06:58.054Z,19.37
2023-04-23T01:07:19.847Z,19.33
2023-04-23T01:07:43.444Z,19.33
2023-04-23T01:08:06.458Z,19.28
2023-04-23T01:08:31.352Z,19.31
2023-04-23T01:08:53.046Z,19.31
2023-04-23T01:09:15.502Z,19.30
2023-04-23T01:09:37.685Z,19.31
2023-04-23T01:10:01.938Z,19.25
2023-04-23T01:10:24.782Z,19.32
2023-04-23T01:10:47.656Z,19.33
2023-04-23T01:11:09.754Z,19.32
2023-04-23T01:11:33.081Z,19.30
2023-04-23T01:11:55.435Z,19.29
2023-04-23T01:12:17.781Z,19.22
2023-04-23T01:12:39.700Z,19.31
2023-04-23T01:13:02.481Z,19.31
2023-04-23T01:13:26.869Z,19.33
2023-04-23T01:13:48.533Z,19.31
2023-04-23T01:14:11.059Z,19.30
2023-04-23T01:14:33.018Z,19.30
2023-04-23T01:14:55.937Z,19.32
2023-04-23T01:15:17.575Z,19.33
2023-04-23T01:15:39.413Z,19.32
2023-04-23T01:16:01.935Z,19.31
2023-04-23T01:16:24.578Z,19.32
2023-04-23T01:16:46.975Z,19.29
2023-04-23T01:17:08.896Z,19.27
2023-04-23T01:17:30.707Z,19.27
2023-04-23T01:17:53.684Z,19.27
2023-04-23T01:18:16.471Z,19.29
2023-04-23T01:18:38.119Z,19.27
2023-04-23T01:18:59.784Z,19.23
2023-04-23T01:19:21.477Z,19.19
2023-04-23T01:19:44.857Z,19.26
2023-04-23T01:20:08.428Z,19.28
2023-04-23T01:20:31.214Z,19.26
2023-04-23T01:20:53.565Z,19.27
2023-04-23T01:21:16.998Z,19.27
2023-04-23T01:21:41.465Z,19.24
2023-04-23T01:22:04.184Z,19.28
2023-04-23T01:22:27.223Z,19.18
2023-04-23T01:22:48.913Z,19.23
2023-04-23T01:23:11.016Z,19.22
2023-04-23T01:23:34.212Z,19.23
2023-04-23T01:23:56.056Z,19.20
2023-04-23T01:24:18.001Z,19.23
2023-04-23T01:24:42.690Z,19.22
2023-04-23T01:25:08.018Z,19.21
2023-04-23T01:25:29.956Z,19.21
2023-04-23T01:25:51.661Z,19.23
2023-04-23T01:26:14.880Z,19.25
2023-04-23T01:26:36.541Z,19.27
2023-04-23T01:26:59.725Z,19.28
2023-04-23T01:27:22.273Z,19.31
2023-04-23T01:27:44.233Z,19.29
2023-04-23T01:28:06.593Z,19.32
2023-04-23T01:28:29.090Z,19.30
2023-04-23T01:28:52.667Z,19.31
2023-04-23T01:29:14.905Z,19.32
2023-04-23T01:29:38.092Z,19.31
2023-04-23T01:29:59.893Z,19.31
2023-04-23T01:30:21.926Z,19.32
2023-04-23T01:30:45.184Z,19.22
2023-04-23T01:31:07.179Z,19.26
2023-04-23T01:31:29.663Z,19.27
2023-04-23T01:31:51.811Z,19.21
2023-04-23T01:32:13.962Z,19.29
2023-04-23T01:32:36.850Z,19.30
2023-04-23T01:32:59.337Z,19.26
2023-04-23T01:33:21.650Z,19.28
2023-04-23T01:33:44.246Z,19.27
2023-04-23T01:34:07.790Z,19.26
2023-04-23T01:34:30.469Z,19.27
2023-04-23T01:34:54.012Z,19.27
2023-04-23T01:35:15.759Z,19.27
2023-04-23T01:35:38.845Z,19.31
2023-04-23T01:36:01.008Z,19.35
2023-04-23T01:36:23.331Z,19.35
2023-04-23T01:36:47.814Z,19.37
2023-04-23T01:37:11.309Z,19.36
2023-04-23T01:37:35.655Z,19.32
2023-04-23T01:37:58.901Z,19.28
2023-04-23T01:38:22.621Z,19.33
2023-04-23T01:38:46.015Z,19.33
2023-04-23T01:39:09.005Z,19.34
2023-04-23T01:39:31.031Z,19.35
2023-04-23T01:39:52.780Z,19.34
2023-04-23T01:40:14.438Z,19.35
2023-04-23T01:40:37.186Z,19.35
2023-04-23T01:40:58.980Z,19.25
2023-04-23T01:41:21.038Z,19.32
2023-04-23T01:41:43.356Z,19.30
2023-04-23T01:42:07.122Z,19.30
2023-04-23T01:42:29.760Z,19.36
2023-04-23T01:42:51.401Z,19.35
2023-04-23T01:43:13.048Z,19.36
2023-04-23T01:43:36.032Z,19.31
2023-04-23T01:43:57.857Z,19.37
2023-04-23T01:44:20.461Z,19.36
2023-04-23T01:44:42.820Z,19.39
2023-04-23T01:45:07.864Z,19.39
2023-04-23T01:45:30.633Z,19.35
2023-04-23T01:45:53.738Z,19.38
2023-04-23T01:46:15.745Z,19.37
2023-04-23T01:46:37.868Z,19.38
2023-04-23T01:46:59.588Z,19.40
2023-04-23T01:47:21.939Z,19.25
2023-04-23T01:47:44.810Z,19.39
2023-04-23T01:48:06.735Z,19.37
2023-04-23T01:48:28.627Z,19.42
2023-04-23T01:48:50.528Z,19.44
2023-04-23T01:49:13.731Z,19.46
2023-04-23T01:49:35.429Z,19.46
2023-04-23T01:49:57.222Z,19.46
2023-04-23T01:50:18.876Z,19.46
2023-04-23T01:50:41.497Z,19.46
2023-04-23T01:51:05.100Z,19.48
2023-04-23T01:51:27.036Z,19.40
2023-04-23T01:51:49.569Z,19.47
2023-04-23T01:52:11.367Z,19.46
2023-04-23T01:52:35.396Z,19.44
2023-04-23T01:52:57.270Z,19.43
2023-04-23T01:53:18.967Z,19.39
2023-04-23T01:53:40.712Z,19.40
2023-04-23T01:54:03.772Z,19.41
2023-04-23T01:54:25.507Z,19.40
2023-04-23T01:54:48.191Z,19.40
2023-04-23T01:55:09.779Z,19.40
2023-04-23T01:55:33.144Z,19.40
2023-04-23T01:55:56.081Z,19.38
2023-04-23T01:56:20.479Z,19.37
2023-04-23T01:56:42.346Z,19.32
2023-04-23T01:57:05.227Z,19.42
2023-04-23T01:57:27.628Z,19.40
2023-04-23T01:57:51.053Z,19.41
2023-04-23T01:58:12.798Z,19.41
2023-04-23T01:58:35.409Z,19.39
2023-04-23T01:58:57.122Z,19.44
2023-04-23T01:59:19.022Z,19.44
2023-04-23T01:59:41.434Z,19.35
2023-04-23T02:00:08.206Z,19.46
2023-04-23T02:00:39.928Z,19.44
2023-04-23T02:01:01.654Z,19.46
2023-04-23T02:01:23.305Z,19.43
2023-04-23T02:01:46.707Z,19.44
2023-04-23T02:02:13.688Z,19.36
2023-04-23T02:02:35.845Z,19.25
2023-04-23T02:02:57.860Z,19.33
2023-04-23T02:03:19.775Z,19.38
2023-04-23T02:03:41.622Z,19.35
2023-04-23T02:04:03.500Z,19.30
2023-04-23T02:04:27.347Z,19.29
2023-04-23T02:04:50.498Z,19.31
2023-04-23T02:05:13.520Z,19.27
2023-04-23T02:05:36.565Z,19.33
2023-04-23T02:05:59.548Z,19.32
2023-04-23T02:06:22.135Z,19.36
2023-04-23T02:06:47.180Z,19.38
2023-04-23T02:07:09.021Z,19.40
2023-04-23T02:07:31.186Z,19.39
2023-04-23T02:07:54.333Z,19.44
2023-04-23T02:08:17.184Z,19.42
2023-04-23T02:08:39.312Z,19.40
2023-04-23T02:09:00.970Z,19.39
2023-04-23T02:09:22.761Z,19.39
2023-04-23T02:09:45.902Z,19.38
2023-04-23T02:10:09.097Z,19.39
2023-04-23T02:10:31.925Z,19.38
2023-04-23T02:10:53.607Z,19.40
2023-04-23T02:11:15.307Z,19.40
2023-04-23T02:11:37.358Z,19.41
2023-04-23T02:12:00.051Z,19.41
2023-04-23T02:12:22.010Z,19.39
2023-04-23T02:12:44.432Z,19.42
2023-04-23T02:13:06.039Z,19.41
2023-04-23T02:13:28.871Z,19.37
2023-04-23T02:13:50.549Z,19.39
2023-04-23T02:14:12.821Z,19.39
2023-04-23T02:14:35.190Z,19.36
2023-04-23T02:14:58.483Z,19.36
2023-04-23T02:15:20.159Z,19.28
2023-04-23T02:15:43.154Z,19.33
2023-04-23T02:16:05.735Z,19.22
2023-04-23T02:16:28.582Z,19.28
2023-04-23T02:16:51.511Z,19.27
2023-04-23T02:17:13.196Z,19.20
2023-04-23T02:17:35.418Z,19.26
2023-04-23T02:17:57.135Z,19.18
2023-04-23T02:18:22.148Z,19.18
2023-04-23T02:18:44.780Z,19.15
2023-04-23T02:19:06.478Z,19.19
2023-04-23T02:19:28.105Z,19.20
2023-04-23T02:19:51.188Z,19.16
2023-04-23T02:20:12.823Z,19.18
2023-04-23T02:20:38.707Z,19.17
2023-04-23T02:21:00.361Z,19.16
2023-04-23T02:21:24.362Z,19.15
2023-04-23T02:21:47.642Z,19.14
2023-04-23T02:22:09.378Z,19.13
2023-04-23T02:22:31.558Z,19.11
2023-04-23T02:22:54.580Z,19.15
2023-04-23T02:23:16.237Z,19.17
2023-04-23T02:23:39.099Z,19.14
2023-04-23T02:24:00.751Z,19.15
2023-04-23T02:24:22.473Z,19.12
2023-04-23T02:24:44.486Z,19.11
2023-04-23T02:25:07.370Z,19.10
2023-04-23T02:25:32.278Z,19.13
2023-04-23T02:25:53.917Z,19.13
2023-04-23T02:26:15.799Z,19.15
2023-04-23T02:26:37.432Z,19.16
2023-04-23T02:27:00.407Z,19.17
2023-04-23T02:27:22.317Z,19.17
2023-04-23T02:27:44.432Z,19.19
2023-04-23T02:28:07.664Z,19.19
2023-04-23T02:28:31.382Z,19.18
2023-04-23T02:28:53.317Z,19.09
2023-04-23T02:29:15.027Z,19.14
2023-04-23T02:29:37.079Z,19.11
2023-04-23T02:29:59.091Z,19.11
2023-04-23T02:30:22.768Z,19.11
2023-04-23T02:30:46.591Z,19.09
2023-04-23T02:31:08.377Z,19.10
2023-04-23T02:31:33.315Z,19.10
2023-04-23T02:31:55.189Z,19.11
2023-04-23T02:32:18.124Z,19.08
2023-04-23T02:32:40.272Z,19.12
2023-04-23T02:33:02.036Z,19.15
2023-04-23T02:33:24.631Z,19.12
2023-04-23T02:33:46.966Z,19.13
2023-04-23T02:34:09.703Z,19.12
2023-04-23T02:34:31.453Z,19.07
2023-04-23T02:34:53.597Z,19.05
2023-04-23T02:35:15.280Z,19.04
2023-04-23T02:35:36.980Z,19.04
2023-04-23T02:35:58.722Z,19.03
2023-04-23T02:36:21.469Z,18.99
2023-04-23T02:36:43.815Z,19.00
2023-04-23T02:37:05.472Z,19.02
2023-04-23T02:37:27.280Z,19.04
2023-04-23T02:37:49.943Z,19.04
2023-04-23T02:38:12.992Z,19.04
2023-04-23T02:38:34.602Z,19.00
2023-04-23T02:38:56.227Z,19.03
2023-04-23T02:39:18.822Z,18.95
2023-04-23T02:39:40.471Z,19.05
2023-04-23T02:40:02.217Z,19.09
2023-04-23T02:40:25.080Z,19.09
2023-04-23T02:40:46.706Z,19.11
2023-04-23T02:41:08.555Z,19.07
2023-04-23T02:41:30.196Z,18.97
2023-04-23T02:41:52.943Z,19.10
2023-04-23T02:42:14.690Z,19.13
2023-04-23T02:42:36.318Z,19.14
2023-04-23T02:42:58.006Z,19.16
2023-04-23T02:43:19.905Z,19.15
2023-04-23T02:43:42.446Z,19.11
2023-04-23T02:44:04.224Z,19.05
2023-04-23T02:44:26.122Z,19.11
2023-04-23T02:44:47.802Z,19.13
2023-04-23T02:45:11.771Z,19.13
2023-04-23T02:45:33.358Z,19.12
2023-04-23T02:45:55.023Z,19.13
2023-04-23T02:46:17.397Z,19.13
2023-04-23T02:46:40.011Z,19.12
2023-04-23T02:47:03.410Z,19.13
2023-04-23T02:47:25.543Z,18.98
2023-04-23T02:47:47.373Z,19.11
2023-04-23T02:48:10.370Z,19.10
2023-04-23T02:48:32.018Z,19.11
2023-04-23T02:48:53.846Z,19.09
2023-04-23T02:49:16.008Z,19.06
2023-04-23T02:49:37.679Z,19.12
2023-04-23T02:50:03.181Z,19.08
2023-04-23T02:50:24.960Z,19.08
2023-04-23T02:50:46.740Z,19.10
2023-04-23T02:51:10.745Z,19.10
2023-04-23T02:51:33.624Z,19.08
2023-04-23T02:51:55.307Z,19.05
2023-04-23T02:52:17.454Z,18.97
2023-04-23T02:52:39.259Z,19.06
2023-04-23T02:53:01.036Z,19.09
2023-04-23T02:53:24.259Z,19.05
2023-04-23T02:53:46.896Z,19.11
2023-04-23T02:54:08.559Z,19.11
2023-04-23T02:54:32.252Z,19.11
2023-04-23T02:54:53.940Z,19.10
2023-04-23T02:55:15.697Z,19.10
2023-04-23T02:55:38.338Z,19.07
2023-04-23T02:56:00.162Z,18.96
2023-04-23T02:56:21.925Z,19.11
2023-04-23T02:56:43.821Z,19.13
2023-04-23T02:57:07.082Z,19.12
2023-04-23T02:57:29.695Z,19.12
2023-04-23T02:57:51.425Z,19.10
2023-04-23T02:58:13.413Z,19.07
2023-04-23T02:58:37.847Z,19.11
2023-04-23T02:58:59.947Z,19.09
2023-04-23T02:59:21.578Z,19.10
2023-04-23T02:59:43.228Z,19.06
2023-04-23T03:00:07.908Z,19.05
2023-04-23T03:00:35.317Z,18.95
2023-04-23T03:00:57.348Z,18.96
2023-04-23T03:01:20.376Z,18.89
2023-04-23T03:01:42.086Z,18.90
2023-04-23T03:02:05.701Z,18.89
2023-04-23T03:02:27.604Z,18.87
2023-04-23T03:02:51.309Z,18.87
2023-04-23T03:03:14.357Z,18.84
2023-04-23T03:03:36.379Z,18.82
2023-04-23T03:04:00.158Z,18.86
2023-04-23T03:04:22.137Z,18.84
2023-04-23T03:04:46.218Z,18.83
2023-04-23T03:05:08.819Z,18.86
2023-04-23T03:05:30.614Z,18.86
2023-04-23T03:05:52.637Z,18.89
2023-04-23T03:06:15.307Z,18.89
2023-04-23T03:06:37.374Z,18.89
2023-04-23T03:06:58.986Z,18.90
2023-04-23T03:07:20.634Z,18.88
2023-04-23T03:07:43.841Z,18.85
2023-04-23T03:08:05.804Z,18.87
2023-04-23T03:08:28.841Z,18.82
2023-04-23T03:08:50.499Z,18.87
2023-04-23T03:09:12.519Z,18.89
2023-04-23T03:09:35.229Z,18.88
2023-04-23T03:09:56.830Z,18.90
2023-04-23T03:10:18.579Z,18.89
2023-04-23T03:10:40.322Z,18.88
2023-04-23T03:11:01.899Z,18.92
2023-04-23T03:11:24.675Z,18.94
2023-04-23T03:11:46.340Z,18.95
2023-04-23T03:12:08.984Z,18.97
2023-04-23T03:12:30.621Z,18.97
2023-04-23T03:12:52.270Z,18.98
2023-04-23T03:13:15.365Z,19.01
2023-04-23T03:13:37.443Z,18.99
2023-04-23T03:13:59.430Z,18.99
2023-04-23T03:14:21.005Z,19.02
2023-04-23T03:14:44.236Z,18.98
2023-04-23T03:15:07.331Z,19.02
2023-04-23T03:15:31.669Z,19.01
2023-04-23T03:15:55.474Z,18.89
2023-04-23T03:16:17.210Z,19.03
2023-04-23T03:16:38.880Z,19.03
2023-04-23T03:17:01.527Z,19.03
2023-04-23T03:17:25.735Z,19.01
2023-04-23T03:17:48.422Z,18.99
2023-04-23T03:18:10.826Z,19.02
2023-04-23T03:18:33.342Z,18.98
2023-04-23T03:18:55.244Z,18.98
2023-04-23T03:19:17.123Z,18.97
2023-04-23T03:19:39.706Z,18.98
2023-04-23T03:20:02.116Z,18.99
2023-04-23T03:20:24.306Z,18.98
2023-04-23T03:20:46.392Z,18.98
2023-04-23T03:21:09.145Z,18.99
2023-04-23T03:21:31.355Z,18.98
2023-04-23T03:21:53.567Z,18.95
2023-04-23T03:22:15.117Z,18.95
2023-04-23T03:22:38.321Z,18.96
2023-04-23T03:23:00.190Z,18.96
2023-04-23T03:23:22.566Z,18.93
2023-04-23T03:23:45.588Z,18.80
2023-04-23T03:24:08.535Z,18.87
2023-04-23T03:24:31.898Z,18.89
2023-04-23T03:24:53.610Z,18.89
2023-04-23T03:25:16.458Z,18.86
2023-04-23T03:25:38.185Z,18.87
2023-04-23T03:26:00.884Z,18.87
2023-04-23T03:26:22.574Z,18.86
2023-04-23T03:26:44.215Z,18.87
2023-04-23T03:27:05.864Z,18.88
2023-04-23T03:27:27.683Z,18.90
2023-04-23T03:27:50.663Z,18.82
2023-04-23T03:28:12.321Z,18.85
2023-04-23T03:28:33.942Z,18.88
2023-04-23T03:28:55.666Z,18.84
2023-04-23T03:29:17.616Z,18.81
2023-04-23T03:29:40.312Z,18.84
2023-04-23T03:30:02.798Z,18.76
2023-04-23T03:30:24.779Z,18.80
2023-04-23T03:30:46.551Z,18.70
2023-04-23T03:31:08.888Z,18.78
2023-04-23T03:31:31.662Z,18.78
2023-04-23T03:31:53.379Z,18.71
2023-04-23T03:32:15.034Z,18.80
2023-04-23T03:32:38.389Z,18.80
2023-04-23T03:33:02.238Z,18.80
2023-04-23T03:33:24.401Z,18.75
2023-04-23T03:33:46.353Z,18.76
2023-04-23T03:34:08.872Z,18.74
2023-04-23T03:34:32.393Z,18.77
2023-04-23T03:34:54.027Z,18.79
2023-04-23T03:35:16.794Z,18.79
2023-04-23T03:35:41.857Z,18.73
2023-04-23T03:36:09.848Z,18.82
2023-04-23T03:36:32.408Z,18.80
2023-04-23T03:36:54.957Z,18.79
2023-04-23T03:37:16.779Z,18.79
2023-04-23T03:37:38.592Z,18.79
2023-04-23T03:38:01.657Z,18.78
2023-04-23T03:38:23.270Z,18.76
2023-04-23T03:38:48.385Z,18.74
2023-04-23T03:39:11.387Z,18.67
2023-04-23T03:39:44.392Z,18.68
2023-04-23T03:40:08.947Z,18.70
2023-04-23T03:40:33.659Z,18.66
2023-04-23T03:40:59.293Z,18.67
2023-04-23T03:41:21.107Z,18.67
2023-04-23T03:41:43.992Z,18.63
2023-04-23T03:42:07.412Z,18.52
2023-04-23T03:42:29.210Z,18.50
2023-04-23T03:42:51.889Z,18.51
2023-04-23T03:43:18.973Z,18.51
2023-04-23T03:44:06.615Z,18.48
2023-04-23T03:44:38.016Z,18.49
2023-04-23T03:45:00.799Z,18.45
2023-04-23T03:45:22.430Z,18.50
2023-04-23T03:45:44.429Z,18.46
2023-04-23T03:46:06.483Z,18.51
2023-04-23T03:46:33.423Z,18.48
2023-04-23T03:46:55.112Z,18.47
2023-04-23T03:47:16.715Z,18.45
2023-04-23T03:47:38.872Z,18.45
2023-04-23T03:48:00.848Z,18.45
2023-04-23T03:48:24.026Z,18.44
2023-04-23T03:48:45.911Z,18.49
2023-04-23T03:49:14.318Z,18.46
2023-04-23T03:49:36.366Z,18.52
2023-04-23T03:49:59.033Z,18.53
2023-04-23T03:50:21.351Z,18.52
2023-04-23T03:50:53.644Z,18.57
2023-04-23T03:51:34.822Z,18.56
2023-04-23T03:51:57.088Z,18.51
2023-04-23T03:52:19.170Z,18.33
2023-04-23T03:52:41.379Z,18.19
2023-04-23T03:53:10.344Z,18.35
2023-04-23T03:54:06.638Z,18.40
2023-04-23T03:54:44.873Z,18.40
2023-04-23T03:55:11.357Z,18.42
2023-04-23T03:55:37.976Z,18.34
2023-04-23T03:55:59.658Z,18.43
2023-04-23T03:56:21.427Z,18.45
2023-04-23T03:56:53.601Z,18.46
2023-04-23T03:57:22.045Z,18.48
2023-04-23T03:57:50.320Z,18.42
2023-04-23T03:58:19.270Z,18.47
2023-04-23T03:58:42.046Z,18.49
2023-04-23T03:59:03.660Z,18.48
2023-04-23T03:59:26.428Z,18.49
2023-04-23T03:59:50.768Z,18.47
2023-04-23T04:00:14.626Z,18.44
2023-04-23T04:00:36.934Z,18.48
2023-04-23T04:00:59.691Z,18.49
2023-04-23T04:01:21.359Z,18.51
2023-04-23T04:01:43.288Z,18.40
2023-04-23T04:02:06.532Z,18.51
2023-04-23T04:02:28.324Z,18.51
2023-04-23T04:02:50.337Z,18.48
2023-04-23T04:03:12.336Z,18.55
2023-04-23T04:03:34.253Z,18.55
2023-04-23T04:03:57.153Z,18.54
2023-04-23T04:04:19.228Z,18.56
2023-04-23T04:04:43.082Z,18.54
2023-04-23T04:05:05.998Z,18.61
2023-04-23T04:05:29.308Z,18.60
2023-04-23T04:05:51.106Z,18.61
2023-04-23T04:06:13.262Z,18.64
2023-04-23T04:06:34.922Z,18.65
2023-04-23T04:06:56.593Z,18.49
2023-04-23T04:07:23.146Z,18.69
2023-04-23T04:07:44.764Z,18.65
2023-04-23T04:08:06.439Z,18.67
2023-04-23T04:08:29.574Z,18.70
2023-04-23T04:08:53.940Z,18.72
2023-04-23T04:09:17.064Z,18.73
2023-04-23T04:09:39.282Z,18.74
2023-04-23T04:10:03.139Z,18.72
2023-04-23T04:10:26.088Z,18.72
2023-04-23T04:10:48.004Z,18.74
2023-04-23T04:11:09.614Z,18.75
2023-04-23T04:11:31.343Z,18.77
2023-04-23T04:11:54.182Z,18.75
2023-04-23T04:12:16.404Z,18.71
2023-04-23T04:12:38.080Z,18.68
2023-04-23T04:12:59.731Z,18.68
2023-04-23T04:13:22.455Z,18.46
2023-04-23T04:13:44.189Z,18.65
2023-04-23T04:14:05.982Z,18.62
2023-04-23T04:14:27.633Z,18.69
2023-04-23T04:14:49.228Z,18.66
2023-04-23T04:15:11.588Z,18.68
2023-04-23T04:15:34.234Z,18.67
2023-04-23T04:15:56.330Z,18.67
2023-04-23T04:16:18.012Z,18.69
2023-04-23T04:16:39.808Z,18.69
2023-04-23T04:17:02.438Z,18.69
2023-04-23T04:17:24.063Z,18.69
2023-04-23T04:17:45.998Z,18.71
2023-04-23T04:18:07.899Z,18.73
2023-04-23T04:18:29.579Z,18.67
2023-04-23T04:18:53.858Z,18.77
2023-04-23T04:19:17.529Z,18.75
2023-04-23T04:19:39.238Z,18.77
2023-04-23T04:20:00.832Z,18.79
2023-04-23T04:20:23.405Z,18.58
2023-04-23T04:20:45.693Z,18.85
2023-04-23T04:21:07.507Z,18.85
2023-04-23T04:21:29.912Z,18.86
2023-04-23T04:21:51.517Z,18.84
2023-04-23T04:22:14.120Z,18.88
2023-04-23T04:22:35.660Z,18.89
2023-04-23T04:22:57.341Z,18.90
2023-04-23T04:23:19.016Z,18.89
2023-04-23T04:23:41.571Z,18.90
2023-04-23T04:24:05.678Z,18.87
2023-04-23T04:24:32.185Z,18.91
2023-04-23T04:24:54.141Z,18.92
2023-04-23T04:25:16.760Z,18.91
2023-04-23T04:25:40.039Z,18.85
2023-04-23T04:26:02.452Z,18.89
2023-04-23T04:26:24.121Z,18.88
2023-04-23T04:26:47.570Z,18.88
2023-04-23T04:27:09.695Z,18.85
2023-04-23T04:27:33.827Z,18.88
2023-04-23T04:27:55.560Z,18.85
2023-04-23T04:28:18.222Z,18.86
2023-04-23T04:28:39.820Z,18.83
2023-04-23T04:29:01.816Z,18.83
2023-04-23T04:29:23.889Z,18.75
2023-04-23T04:29:46.461Z,18.81
2023-04-23T04:30:09.322Z,18.81
2023-04-23T04:30:30.904Z,18.81
2023-04-23T04:30:53.910Z,18.79
2023-04-23T04:31:16.032Z,18.81
2023-04-23T04:31:39.491Z,18.79
2023-04-23T04:32:02.626Z,18.75
2023-04-23T04:32:24.508Z,18.77
2023-04-23T04:32:47.252Z,18.73
2023-04-23T04:33:09.981Z,18.78
2023-04-23T04:33:33.025Z,18.73
2023-04-23T04:33:55.349Z,18.81
2023-04-23T04:34:17.868Z,18.80
2023-04-23T04:34:40.696Z,18.78
2023-04-23T04:35:04.157Z,18.83
2023-04-23T04:35:25.818Z,18.82
2023-04-23T04:35:49.635Z,18.76
2023-04-23T04:36:11.279Z,18.83
2023-04-23T04:36:33.027Z,18.87
2023-04-23T04:36:54.693Z,18.87
2023-04-23T04:37:17.653Z,18.86
2023-04-23T04:37:39.348Z,18.84
2023-04-23T04:38:01.007Z,18.83
2023-04-23T04:38:22.672Z,18.80
2023-04-23T04:38:44.292Z,18.88
2023-04-23T04:39:07.865Z,18.86
2023-04-23T04:39:30.886Z,18.83
2023-04-23T04:39:52.587Z,18.85
2023-04-23T04:40:14.751Z,18.88
2023-04-23T04:40:37.428Z,18.81
2023-04-23T04:41:02.925Z,18.87
2023-04-23T04:41:27.620Z,18.91
2023-04-23T04:41:49.859Z,18.89
2023-04-23T04:42:13.143Z,18.86
2023-04-23T04:42:34.783Z,18.88
2023-04-23T04:42:57.377Z,18.88
2023-04-23T04:43:19.251Z,18.88
2023-04-23T04:43:43.648Z,18.89
2023-04-23T04:44:05.296Z,18.89
2023-04-23T04:44:27.002Z,18.87
2023-04-23T04:44:48.872Z,18.63
2023-04-23T04:45:12.190Z,18.73
2023-04-23T04:45:33.854Z,18.79
2023-04-23T04:45:55.557Z,18.81
2023-04-23T04:46:20.649Z,18.82
2023-04-23T04:46:43.506Z,18.84
2023-04-23T04:47:05.560Z,18.75
2023-04-23T04:47:27.954Z,18.74
2023-04-23T04:47:49.669Z,18.80
2023-04-23T04:48:12.278Z,18.81
2023-04-23T04:48:33.908Z,18.80
2023-04-23T04:48:55.627Z,18.80
2023-04-23T04:49:19.429Z,18.79
2023-04-23T04:49:41.102Z,18.79
2023-04-23T04:50:04.045Z,18.81
2023-04-23T04:50:25.749Z,18.82
2023-04-23T04:50:47.942Z,18.80
2023-04-23T04:51:09.907Z,18.76
2023-04-23T04:51:32.504Z,18.81
2023-04-23T04:51:54.241Z,18.77
2023-04-23T04:52:16.188Z,18.79
2023-04-23T04:52:38.278Z,18.79
2023-04-23T04:53:01.072Z,18.79
2023-04-23T04:53:22.906Z,18.80
2023-04-23T04:53:44.528Z,18.83
2023-04-23T04:54:07.363Z,18.83
2023-04-23T04:54:30.029Z,18.83